MPH625 RJTT-EFHK
Flight info
| Callsign | MPH625 |
|---|---|
| Flight time | N/A |
| Altitude | 33000 |
| Route | INUBO Y808 PUTER A590 POWAL DCT OPAKE DCT MARCC DCT JUJXI DCT 80N165W DCT DEKMO DCT 89N060W/M086F330 82N010E/N0499F330 DCT TETNI DCT GOSVA Y86 LUSEP |
| Aircraft | B748/H-SDE3FGHIM1M2RWXY/LB1 |
Departure
| Time | N/A |
|---|---|
| Airport | Tokyo Haneda International Airport (RJTT) |
Arrival
| Time | 2026-04-21 10:03 |
|---|---|
| Airport | Helsinki Vantaa Airport (EFHK) |
| Time | Latitude | Longitude | Altitude | Speed | Heading |
|---|---|---|---|---|---|
| 2026-04-21 08:27 | 72.69532 | 20.41994 | 32842 ft | 554 kts | 175° |
| 2026-04-21 08:27 | 72.61915 | 20.45912 | 32842 ft | 554 kts | 175° |
| 2026-04-21 08:28 | 72.54319 | 20.49784 | 32841 ft | 551 kts | 175° |
| 2026-04-21 08:28 | 72.46747 | 20.53609 | 32839 ft | 550 kts | 175° |
| 2026-04-21 08:29 | 72.39175 | 20.57405 | 32855 ft | 550 kts | 175° |
| 2026-04-21 08:29 | 72.31684 | 20.61128 | 32857 ft | 550 kts | 175° |
| 2026-04-21 08:30 | 72.24082 | 20.64875 | 32873 ft | 549 kts | 175° |
| 2026-04-21 08:30 | 72.16521 | 20.68567 | 32884 ft | 550 kts | 174° |
| 2026-04-21 08:31 | 72.08953 | 20.72240 | 32900 ft | 549 kts | 175° |
| 2026-04-21 08:31 | 72.01434 | 20.75851 | 32897 ft | 550 kts | 175° |
| 2026-04-21 08:32 | 71.93860 | 20.79466 | 32920 ft | 550 kts | 175° |
| 2026-04-21 08:32 | 71.86281 | 20.83048 | 32921 ft | 550 kts | 175° |
| 2026-04-21 08:33 | 71.78697 | 20.86604 | 32930 ft | 549 kts | 174° |
| 2026-04-21 08:33 | 71.71119 | 20.90134 | 32934 ft | 549 kts | 174° |
| 2026-04-21 08:34 | 71.63589 | 20.93607 | 32950 ft | 548 kts | 174° |
| 2026-04-21 08:34 | 71.56032 | 20.97069 | 32949 ft | 548 kts | 174° |
| 2026-04-21 08:35 | 71.48509 | 21.00485 | 32982 ft | 548 kts | 174° |
| 2026-04-21 08:35 | 71.41000 | 21.03871 | 32967 ft | 542 kts | 174° |
| 2026-04-21 08:36 | 71.33536 | 21.07205 | 32983 ft | 542 kts | 174° |
| 2026-04-21 08:36 | 71.26081 | 21.10514 | 32981 ft | 541 kts | 174° |
| 2026-04-21 08:37 | 71.18617 | 21.13799 | 32999 ft | 542 kts | 174° |
| 2026-04-21 08:37 | 71.11180 | 21.17048 | 33001 ft | 542 kts | 174° |
| 2026-04-21 08:38 | 71.03721 | 21.20279 | 33020 ft | 540 kts | 173° |
| 2026-04-21 08:38 | 70.96269 | 21.23489 | 33020 ft | 540 kts | 173° |
| 2026-04-21 08:39 | 70.88853 | 21.27313 | 33043 ft | 541 kts | 168° |
| 2026-04-21 08:39 | 70.81548 | 21.32523 | 33046 ft | 541 kts | 168° |
| 2026-04-21 08:40 | 70.74197 | 21.37456 | 33066 ft | 541 kts | 168° |
| 2026-04-21 08:40 | 70.66827 | 21.42505 | 33071 ft | 541 kts | 168° |
| 2026-04-21 08:41 | 70.59540 | 21.47397 | 33057 ft | 539 kts | 167° |
| 2026-04-21 08:41 | 70.52216 | 21.52298 | 33077 ft | 539 kts | 167° |
| 2026-04-21 08:42 | 70.44898 | 21.57159 | 33095 ft | 539 kts | 167° |
| 2026-04-21 08:42 | 70.37560 | 21.61990 | 33115 ft | 539 kts | 167° |
| 2026-04-21 08:43 | 70.30244 | 21.66780 | 33107 ft | 538 kts | 168° |
| 2026-04-21 08:43 | 70.22937 | 21.71519 | 33117 ft | 533 kts | 167° |
| 2026-04-21 08:44 | 70.15763 | 21.76149 | 33130 ft | 530 kts | 167° |
| 2026-04-21 08:44 | 70.08543 | 21.80770 | 33129 ft | 531 kts | 167° |
| 2026-04-21 08:45 | 70.01305 | 21.85371 | 33128 ft | 533 kts | 167° |
| 2026-04-21 08:45 | 69.94051 | 21.89946 | 33139 ft | 530 kts | 167° |
| 2026-04-21 08:46 | 69.86819 | 21.94481 | 33113 ft | 531 kts | 167° |
| 2026-04-21 08:46 | 69.79584 | 21.98982 | 33135 ft | 530 kts | 167° |
| 2026-04-21 08:47 | 69.72388 | 22.03429 | 33136 ft | 532 kts | 167° |
| 2026-04-21 08:47 | 69.65152 | 22.07869 | 33128 ft | 532 kts | 167° |
| 2026-04-21 08:48 | 69.57914 | 22.12281 | 33125 ft | 533 kts | 168° |
| 2026-04-21 08:48 | 69.50635 | 22.16685 | 33129 ft | 534 kts | 168° |
| 2026-04-21 08:49 | 69.43368 | 22.21051 | 33117 ft | 532 kts | 167° |
| 2026-04-21 08:49 | 69.36121 | 22.25377 | 33117 ft | 533 kts | 168° |
| 2026-04-21 08:50 | 69.28849 | 22.29686 | 33125 ft | 534 kts | 168° |
| 2026-04-21 08:50 | 69.21621 | 22.33942 | 33124 ft | 534 kts | 168° |
| 2026-04-21 08:51 | 69.14346 | 22.38195 | 33134 ft | 534 kts | 168° |
| 2026-04-21 08:51 | 69.07066 | 22.42421 | 33111 ft | 533 kts | 167° |
| 2026-04-21 08:52 | 68.99795 | 22.46615 | 33149 ft | 526 kts | 167° |
| 2026-04-21 08:52 | 68.92693 | 22.50684 | 33138 ft | 520 kts | 167° |
| 2026-04-21 08:53 | 68.85623 | 22.54710 | 33141 ft | 521 kts | 167° |
| 2026-04-21 08:53 | 68.78502 | 22.58735 | 33159 ft | 522 kts | 167° |
| 2026-04-21 08:54 | 68.71393 | 22.62730 | 33162 ft | 522 kts | 167° |
| 2026-04-21 08:54 | 68.64289 | 22.66693 | 33163 ft | 517 kts | 167° |
| 2026-04-21 08:55 | 68.57228 | 22.70612 | 33160 ft | 517 kts | 167° |
| 2026-04-21 08:55 | 68.50178 | 22.74495 | 33167 ft | 517 kts | 167° |
| 2026-04-21 08:56 | 68.43164 | 22.78336 | 33167 ft | 517 kts | 167° |
| 2026-04-21 08:56 | 68.36104 | 22.82177 | 33173 ft | 516 kts | 167° |
| 2026-04-21 08:57 | 68.29061 | 22.85987 | 33147 ft | 516 kts | 168° |
| 2026-04-21 08:57 | 68.21998 | 22.89779 | 33169 ft | 519 kts | 168° |
| 2026-04-21 08:58 | 68.14899 | 22.93571 | 33193 ft | 519 kts | 168° |
| 2026-04-21 08:58 | 68.07789 | 22.97342 | 33196 ft | 520 kts | 168° |
| 2026-04-21 08:59 | 68.00728 | 23.01065 | 33199 ft | 520 kts | 168° |
| 2026-04-21 08:59 | 67.93637 | 23.04780 | 33197 ft | 519 kts | 168° |
| 2026-04-21 09:00 | 67.86526 | 23.08484 | 33196 ft | 522 kts | 168° |
| 2026-04-21 09:00 | 67.79400 | 23.12169 | 33196 ft | 521 kts | 168° |
| 2026-04-21 09:01 | 67.72334 | 23.15805 | 33205 ft | 520 kts | 168° |
| 2026-04-21 09:01 | 67.65223 | 23.19438 | 33205 ft | 520 kts | 168° |
| 2026-04-21 09:02 | 67.58105 | 23.23054 | 33207 ft | 520 kts | 168° |
| 2026-04-21 09:02 | 67.50992 | 23.26645 | 33205 ft | 519 kts | 168° |
| 2026-04-21 09:03 | 67.40414 | 23.31945 | 33209 ft | 517 kts | 168° |
| 2026-04-21 09:03 | 67.34523 | 23.34875 | 33207 ft | 517 kts | 168° |
| 2026-04-21 09:04 | 67.27437 | 23.38382 | 33208 ft | 518 kts | 168° |
| 2026-04-21 09:04 | 67.20361 | 23.41863 | 33219 ft | 517 kts | 169° |
| 2026-04-21 09:05 | 67.13294 | 23.45317 | 33209 ft | 516 kts | 169° |
| 2026-04-21 09:05 | 67.06239 | 23.48745 | 33208 ft | 516 kts | 169° |
| 2026-04-21 09:06 | 66.99183 | 23.52154 | 33214 ft | 516 kts | 169° |
| 2026-04-21 09:06 | 66.92118 | 23.55547 | 33207 ft | 516 kts | 169° |
| 2026-04-21 09:07 | 66.85106 | 23.58895 | 33209 ft | 515 kts | 169° |
| 2026-04-21 09:07 | 66.78060 | 23.62240 | 33219 ft | 515 kts | 169° |
| 2026-04-21 09:08 | 66.70988 | 23.65577 | 33225 ft | 517 kts | 169° |
| 2026-04-21 09:08 | 66.63906 | 23.68900 | 33224 ft | 517 kts | 169° |
| 2026-04-21 09:09 | 66.56873 | 23.72179 | 33222 ft | 514 kts | 169° |
| 2026-04-21 09:09 | 66.49850 | 23.75438 | 33222 ft | 514 kts | 169° |
| 2026-04-21 09:10 | 66.42803 | 23.78687 | 33221 ft | 513 kts | 169° |
| 2026-04-21 09:10 | 66.35820 | 23.81889 | 33213 ft | 517 kts | 169° |
| 2026-04-21 09:11 | 66.28727 | 23.85122 | 33215 ft | 517 kts | 169° |
| 2026-04-21 09:11 | 66.21643 | 23.88333 | 33218 ft | 518 kts | 169° |
| 2026-04-21 09:12 | 66.14537 | 23.91536 | 33213 ft | 518 kts | 169° |
| 2026-04-21 09:12 | 66.07476 | 23.94699 | 33244 ft | 518 kts | 169° |
| 2026-04-21 09:13 | 66.00470 | 23.97821 | 33222 ft | 514 kts | 169° |
| 2026-04-21 09:13 | 65.93432 | 24.00942 | 33585 ft | 515 kts | 169° |
| 2026-04-21 09:14 | 65.89874 | 24.02511 | 33939 ft | 516 kts | 169° |
| 2026-04-21 09:14 | 65.86333 | 24.04069 | 34282 ft | 517 kts | 169° |
| 2026-04-21 09:14 | 65.82790 | 24.05625 | 34577 ft | 518 kts | 169° |
| 2026-04-21 09:14 | 65.79277 | 24.07163 | 34877 ft | 518 kts | 169° |
| 2026-04-21 09:15 | 65.75735 | 24.08708 | 35199 ft | 519 kts | 169° |
| 2026-04-21 09:15 | 65.72167 | 24.10260 | 35507 ft | 519 kts | 169° |
| 2026-04-21 09:15 | 65.68606 | 24.11805 | 35829 ft | 520 kts | 169° |
| 2026-04-21 09:15 | 65.65046 | 24.13346 | 36158 ft | 520 kts | 169° |
| 2026-04-21 09:16 | 65.61484 | 24.14884 | 36481 ft | 520 kts | 169° |
| 2026-04-21 09:16 | 65.57913 | 24.16420 | 36770 ft | 521 kts | 169° |
| 2026-04-21 09:16 | 65.54348 | 24.17950 | 37064 ft | 521 kts | 169° |
| 2026-04-21 09:16 | 65.50759 | 24.19485 | 37247 ft | 524 kts | 169° |
| 2026-04-21 09:17 | 65.43592 | 24.22540 | 37224 ft | 521 kts | 169° |
| 2026-04-21 09:17 | 65.36474 | 24.25557 | 37229 ft | 522 kts | 169° |
| 2026-04-21 09:18 | 65.29325 | 24.28569 | 37236 ft | 521 kts | 169° |
| 2026-04-21 09:18 | 65.22170 | 24.31569 | 37245 ft | 522 kts | 169° |
| 2026-04-21 09:19 | 65.15022 | 24.34548 | 37250 ft | 521 kts | 169° |
| 2026-04-21 09:19 | 65.07868 | 24.37514 | 37250 ft | 521 kts | 169° |
| 2026-04-21 09:20 | 65.00763 | 24.40443 | 37251 ft | 521 kts | 169° |
| 2026-04-21 09:20 | 64.93663 | 24.43355 | 37255 ft | 521 kts | 169° |
| 2026-04-21 09:21 | 64.89179 | 24.45186 | 37255 ft | 521 kts | 169° |
| 2026-04-21 09:21 | 64.82047 | 24.48085 | 37265 ft | 521 kts | 169° |
| 2026-04-21 09:22 | 64.74920 | 24.50967 | 37265 ft | 521 kts | 169° |
| 2026-04-21 09:22 | 64.67770 | 24.53842 | 37275 ft | 521 kts | 169° |
| 2026-04-21 09:23 | 64.60618 | 24.56703 | 37274 ft | 521 kts | 169° |
| 2026-04-21 09:23 | 64.53467 | 24.59549 | 37281 ft | 522 kts | 169° |
| 2026-04-21 09:24 | 64.46339 | 24.62369 | 37275 ft | 521 kts | 169° |
| 2026-04-21 09:24 | 64.39183 | 24.65188 | 37288 ft | 521 kts | 169° |
| 2026-04-21 09:25 | 64.32010 | 24.67996 | 37260 ft | 522 kts | 169° |
| 2026-04-21 09:25 | 64.24857 | 24.70783 | 37265 ft | 521 kts | 169° |
| 2026-04-21 09:26 | 64.17690 | 24.73560 | 37264 ft | 521 kts | 169° |
| 2026-04-21 09:26 | 64.10587 | 24.76298 | 37254 ft | 521 kts | 169° |
| 2026-04-21 09:27 | 64.03459 | 24.79032 | 37257 ft | 521 kts | 169° |
| 2026-04-21 09:27 | 63.96294 | 24.81766 | 37257 ft | 520 kts | 169° |
| 2026-04-21 09:28 | 63.89137 | 24.84479 | 37249 ft | 521 kts | 169° |
| 2026-04-21 09:28 | 63.81972 | 24.87190 | 37277 ft | 522 kts | 169° |
| 2026-04-21 09:29 | 63.74842 | 24.89864 | 37242 ft | 521 kts | 169° |
| 2026-04-21 09:29 | 63.67681 | 24.92544 | 37236 ft | 521 kts | 169° |
| 2026-04-21 09:30 | 63.60519 | 24.95205 | 37237 ft | 521 kts | 169° |
| 2026-04-21 09:30 | 63.53353 | 24.97857 | 37242 ft | 522 kts | 169° |
| 2026-04-21 09:31 | 63.46180 | 25.00496 | 37239 ft | 522 kts | 169° |
| 2026-04-21 09:31 | 63.38988 | 25.03130 | 37242 ft | 523 kts | 169° |
| 2026-04-21 09:32 | 63.31877 | 25.05721 | 37242 ft | 522 kts | 169° |
| 2026-04-21 09:32 | 63.24691 | 25.08325 | 37252 ft | 523 kts | 169° |
| 2026-04-21 09:33 | 63.17504 | 25.10918 | 37250 ft | 522 kts | 169° |
| 2026-04-21 09:33 | 63.10609 | 25.13393 | 37250 ft | 522 kts | 169° |
| 2026-04-21 09:34 | 63.03430 | 25.15957 | 37243 ft | 523 kts | 169° |
| 2026-04-21 09:34 | 62.96297 | 25.18492 | 37247 ft | 523 kts | 169° |
| 2026-04-21 09:35 | 62.89107 | 25.21034 | 37246 ft | 522 kts | 169° |
| 2026-04-21 09:35 | 62.81920 | 25.23563 | 37241 ft | 522 kts | 169° |
| 2026-04-21 09:36 | 62.74746 | 25.26075 | 37240 ft | 522 kts | 169° |
| 2026-04-21 09:36 | 62.67552 | 25.28582 | 37239 ft | 523 kts | 169° |
| 2026-04-21 09:37 | 62.60354 | 25.31077 | 37135 ft | 523 kts | 169° |
| 2026-04-21 09:37 | 62.56763 | 25.32317 | 36756 ft | 524 kts | 169° |
| 2026-04-21 09:37 | 62.53162 | 25.33546 | 36422 ft | 524 kts | 172° |
| 2026-04-21 09:38 | 62.49569 | 25.34053 | 36109 ft | 524 kts | 179° |
| 2026-04-21 09:38 | 62.45927 | 25.33838 | 35788 ft | 524 kts | 182° |
| 2026-04-21 09:38 | 62.42280 | 25.33289 | 35478 ft | 524 kts | 183° |
| 2026-04-21 09:38 | 62.38629 | 25.32926 | 35156 ft | 523 kts | 179° |
| 2026-04-21 09:39 | 62.34996 | 25.32943 | 34832 ft | 523 kts | 178° |
| 2026-04-21 09:39 | 62.31356 | 25.32918 | 34514 ft | 523 kts | 180° |
| 2026-04-21 09:39 | 62.27710 | 25.32651 | 34191 ft | 523 kts | 181° |
| 2026-04-21 09:39 | 62.24070 | 25.32369 | 33801 ft | 522 kts | 180° |
| 2026-04-21 09:40 | 62.20431 | 25.32235 | 33403 ft | 522 kts | 180° |
| 2026-04-21 09:40 | 62.16836 | 25.32138 | 33016 ft | 522 kts | 180° |
| 2026-04-21 09:40 | 62.13208 | 25.31957 | 32628 ft | 522 kts | 181° |
| 2026-04-21 09:40 | 62.09570 | 25.31737 | 32236 ft | 523 kts | 181° |
| 2026-04-21 09:41 | 62.05930 | 25.31562 | 31847 ft | 523 kts | 180° |
| 2026-04-21 09:41 | 62.02279 | 25.31416 | 31373 ft | 523 kts | 180° |
| 2026-04-21 09:41 | 61.98621 | 25.31246 | 30669 ft | 524 kts | 181° |
| 2026-04-21 09:41 | 61.94987 | 25.31054 | 29906 ft | 523 kts | 181° |
| 2026-04-21 09:42 | 61.91397 | 25.30879 | 29213 ft | 519 kts | 181° |
| 2026-04-21 09:42 | 61.87799 | 25.30722 | 28510 ft | 515 kts | 181° |
| 2026-04-21 09:42 | 61.84228 | 25.30562 | 27807 ft | 512 kts | 181° |
| 2026-04-21 09:42 | 61.80678 | 25.30391 | 27092 ft | 508 kts | 181° |
| 2026-04-21 09:43 | 61.77151 | 25.30222 | 26390 ft | 504 kts | 181° |
| 2026-04-21 09:43 | 61.73654 | 25.30063 | 25712 ft | 501 kts | 181° |
| 2026-04-21 09:43 | 61.70177 | 25.29906 | 25014 ft | 498 kts | 181° |
| 2026-04-21 09:43 | 61.66731 | 25.29747 | 24335 ft | 494 kts | 181° |
| 2026-04-21 09:44 | 61.63303 | 25.29587 | 23626 ft | 491 kts | 181° |
| 2026-04-21 09:44 | 61.59896 | 25.29430 | 22924 ft | 486 kts | 181° |
| 2026-04-21 09:44 | 61.56532 | 25.29272 | 22271 ft | 481 kts | 181° |
| 2026-04-21 09:44 | 61.53199 | 25.29114 | 21586 ft | 476 kts | 181° |
| 2026-04-21 09:45 | 61.49897 | 25.28959 | 20927 ft | 472 kts | 181° |
| 2026-04-21 09:45 | 61.46635 | 25.28807 | 20266 ft | 468 kts | 181° |
| 2026-04-21 09:45 | 61.43389 | 25.28657 | 19609 ft | 464 kts | 181° |
| 2026-04-21 09:45 | 61.40154 | 25.28506 | 18960 ft | 462 kts | 181° |
| 2026-04-21 09:46 | 61.36953 | 25.28356 | 18288 ft | 459 kts | 180° |
| 2026-04-21 09:46 | 61.33775 | 25.28209 | 17645 ft | 455 kts | 180° |
| 2026-04-21 09:46 | 61.30618 | 25.28064 | 16992 ft | 452 kts | 180° |
| 2026-04-21 09:46 | 61.27487 | 25.27920 | 16350 ft | 448 kts | 180° |
| 2026-04-21 09:47 | 61.24415 | 25.27781 | 15727 ft | 445 kts | 180° |
| 2026-04-21 09:47 | 61.21325 | 25.27642 | 15088 ft | 442 kts | 180° |
| 2026-04-21 09:47 | 61.18260 | 25.27503 | 14450 ft | 439 kts | 180° |
| 2026-04-21 09:47 | 61.15202 | 25.27366 | 13786 ft | 437 kts | 180° |
| 2026-04-21 09:48 | 61.12173 | 25.27230 | 13132 ft | 433 kts | 180° |
| 2026-04-21 09:48 | 61.09171 | 25.27096 | 12498 ft | 429 kts | 180° |
| 2026-04-21 09:48 | 61.06196 | 25.26962 | 11860 ft | 426 kts | 180° |
| 2026-04-21 09:48 | 61.04235 | 25.26874 | 11435 ft | 424 kts | 180° |
| 2026-04-21 09:49 | 61.01287 | 25.26734 | 10791 ft | 425 kts | 181° |
| 2026-04-21 09:49 | 60.98357 | 25.26545 | 10381 ft | 404 kts | 180° |
| 2026-04-21 09:49 | 60.95698 | 25.26481 | 10223 ft | 363 kts | 178° |
| 2026-04-21 09:49 | 60.92516 | 25.26708 | 9655 ft | 332 kts | 177° |
| 2026-04-21 09:50 | 60.90984 | 25.26771 | 9335 ft | 320 kts | 178° |
| 2026-04-21 09:50 | 60.89525 | 25.26830 | 8928 ft | 314 kts | 177° |
| 2026-04-21 09:50 | 60.84627 | 25.27162 | 7901 ft | 288 kts | 176° |
| 2026-04-21 09:51 | 60.82648 | 25.27291 | 7510 ft | 279 kts | 177° |
| 2026-04-21 09:51 | 60.80733 | 25.27411 | 7141 ft | 271 kts | 177° |
| 2026-04-21 09:51 | 60.78870 | 25.27529 | 6786 ft | 265 kts | 176° |
| 2026-04-21 09:51 | 60.77049 | 25.27648 | 6421 ft | 258 kts | 176° |
| 2026-04-21 09:52 | 60.75298 | 25.27765 | 6091 ft | 252 kts | 176° |
| 2026-04-21 09:52 | 60.73552 | 25.27870 | 5741 ft | 248 kts | 176° |
| 2026-04-21 09:52 | 60.71844 | 25.27982 | 5417 ft | 243 kts | 176° |
| 2026-04-21 09:52 | 60.70149 | 25.28052 | 5070 ft | 243 kts | 184° |
| 2026-04-21 09:53 | 60.68570 | 25.26929 | 4755 ft | 242 kts | 219° |
| 2026-04-21 09:53 | 60.67394 | 25.24547 | 4443 ft | 236 kts | 233° |
| 2026-04-21 09:53 | 60.66372 | 25.21935 | 4116 ft | 235 kts | 235° |
| 2026-04-21 09:53 | 60.65339 | 25.19398 | 3813 ft | 232 kts | 231° |
| 2026-04-21 09:54 | 60.64246 | 25.16974 | 3501 ft | 231 kts | 230° |
| 2026-04-21 09:54 | 60.63162 | 25.14597 | 3168 ft | 231 kts | 231° |
| 2026-04-21 09:54 | 60.62085 | 25.12196 | 3014 ft | 224 kts | 230° |
| 2026-04-21 09:54 | 60.61201 | 25.09554 | 3014 ft | 227 kts | 238° |
| 2026-04-21 09:55 | 60.59972 | 25.07583 | 3023 ft | 235 kts | 202° |
| 2026-04-21 09:55 | 60.58369 | 25.07202 | 3038 ft | 232 kts | 169° |
| 2026-04-21 09:55 | 60.56990 | 25.08532 | 3006 ft | 212 kts | 134° |
| 2026-04-21 09:55 | 60.55985 | 25.10732 | 3017 ft | 209 kts | 128° |
| 2026-04-21 09:56 | 60.55054 | 25.13015 | 3015 ft | 213 kts | 124° |
| 2026-04-21 09:56 | 60.54228 | 25.15418 | 3008 ft | 206 kts | 119° |
| 2026-04-21 09:56 | 60.53486 | 25.17933 | 2997 ft | 206 kts | 117° |
| 2026-04-21 09:56 | 60.52755 | 25.20454 | 2995 ft | 204 kts | 117° |
| 2026-04-21 09:57 | 60.52028 | 25.22943 | 2999 ft | 206 kts | 117° |
| 2026-04-21 09:57 | 60.51300 | 25.25424 | 3014 ft | 198 kts | 118° |
| 2026-04-21 09:57 | 60.50525 | 25.27682 | 3018 ft | 191 kts | 128° |
| 2026-04-21 09:57 | 60.49533 | 25.29283 | 2958 ft | 184 kts | 154° |
| 2026-04-21 09:58 | 60.48345 | 25.30313 | 2970 ft | 181 kts | 159° |
| 2026-04-21 09:58 | 60.47115 | 25.30362 | 2890 ft | 179 kts | 205° |
| 2026-04-21 09:58 | 60.46244 | 25.28773 | 2978 ft | 175 kts | 248° |
| 2026-04-21 09:58 | 60.45803 | 25.26604 | 3003 ft | 172 kts | 249° |
| 2026-04-21 09:59 | 60.45096 | 25.24657 | 2948 ft | 173 kts | 229° |
| 2026-04-21 09:59 | 60.44341 | 25.22832 | 2985 ft | 174 kts | 228° |
| 2026-04-21 09:59 | 60.43567 | 25.21101 | 3014 ft | 168 kts | 233° |
| 2026-04-21 09:59 | 60.42784 | 25.19347 | 2989 ft | 165 kts | 229° |
| 2026-04-21 10:00 | 60.42001 | 25.17648 | 2777 ft | 164 kts | 231° |
| 2026-04-21 10:00 | 60.41238 | 25.15956 | 2573 ft | 165 kts | 230° |
| 2026-04-21 10:00 | 60.40469 | 25.14254 | 2354 ft | 162 kts | 231° |
| 2026-04-21 10:00 | 60.39700 | 25.12569 | 2126 ft | 162 kts | 230° |
| 2026-04-21 10:01 | 60.38956 | 25.10898 | 1911 ft | 160 kts | 232° |
| 2026-04-21 10:01 | 60.38193 | 25.09204 | 1678 ft | 160 kts | 231° |
| 2026-04-21 10:01 | 60.37436 | 25.07539 | 1468 ft | 160 kts | 231° |
| 2026-04-21 10:01 | 60.36689 | 25.05882 | 1246 ft | 161 kts | 230° |
| 2026-04-21 10:02 | 60.35208 | 25.02626 | 803 ft | 157 kts | 229° |
| 2026-04-21 10:02 | 60.34459 | 25.01011 | 569 ft | 157 kts | 228° |
| 2026-04-21 10:02 | 60.33721 | 24.99394 | 413 ft | 156 kts | 230° |
| 2026-04-21 10:03 | 60.33004 | 24.97788 | 216 ft | 153 kts | 230° |
| 2026-04-21 10:03 | 60.32381 | 24.96394 | 175 ft | 106 kts | 227° |
| 2026-04-21 10:03 | 60.31988 | 24.95645 | 171 ft | 50 kts | 198° |
| 2026-04-21 10:03 | 60.31763 | 24.95580 | 169 ft | 20 kts | 199° |
| 2026-04-21 10:04 | 60.31669 | 24.95623 | 170 ft | 12 kts | 142° |
| 2026-04-21 10:04 | 60.31608 | 24.95725 | 171 ft | 7 kts | 134° |
| 2026-04-21 10:04 | 60.31577 | 24.95781 | 172 ft | 6 kts | 138° |
| 2026-04-21 10:04 | 60.31571 | 24.95793 | 172 ft | 2 kts | 138° |
| 2026-04-21 10:05 | 60.31563 | 24.95808 | 172 ft | 0 kts | 137° |